Skip Navigation

Christman Field Latest Observations

Switch to english unitsOther observation timesWeekly graphs

Date Time
MST
Temp
°C
RH
%
DewPt
°C
Wind
m/s
Dir
°
Gust
m/s
Dir
°
Press
hPa
Solar
W/m^2
Prec
mm
2019-11-15 08:25 1.1 83.5 -1.4 1.3 259 2.3 250 844.78 105.1 0.00
2019-11-15 08:20 0.7 86.5 -1.3 1.7 239 2.3 234 844.89 98.4 0.00
2019-11-15 08:15 0.4 86.6 -1.6 1.4 358 1.8 1 844.84 89.3 0.00
2019-11-15 08:10 0.3 87.9 -1.5 0.5 324 1.4 353 844.91 79.2 0.00
2019-11-15 08:05 0.3 86.7 -1.7 1.4 356 2.5 356 844.90 69.7 0.00
2019-11-15 08:00 0.2 85.6 -1.9 0.4 321 1.5 321 844.91 61.5 0.00
2019-11-15 07:55 0.2 84.7 -2.1 1.2 321 1.5 321 844.92 54.4 0.00
2019-11-15 07:50 0.4 83.5 -2.1 1.2 341 2.2 322 844.86 48.3 0.00
2019-11-15 07:45 0.8 82.3 -1.9 0.7 351 1.8 338 844.75 43.7 0.00
2019-11-15 07:40 1.1 81.1 -1.8 0.4 339 1.9 339 844.63 40.6 0.00
2019-11-15 07:35 1.5 80.9 -1.4 0.1 72 0.6 131 844.53 43.0 0.00
2019-11-15 07:30 1.4 78.5 -1.9 0.9 131 2.0 119 844.45 45.5 0.00
2019-11-15 07:25 0.5 80.5 -2.5 2.3 13 5.0 317 844.46 46.4 0.00
2019-11-15 07:20 0.0 84.9 -2.2 1.4 143 2.7 304 844.28 52.3 0.00
2019-11-15 07:15 -0.1 86.9 -2.1 1.7 148 2.5 148 844.26 40.1 0.00
2019-11-15 07:10 -0.1 83.5 -2.6 1.5 197 2.3 166 844.26 28.9 0.00
2019-11-15 07:05 -0.5 87.0 -2.4 1.4 166 2.3 167 844.33 22.6 0.00
2019-11-15 07:00 -0.8 84.9 -3.0 1.5 233 2.1 226 844.24 15.5 0.00
2019-11-15 06:55 -1.1 83.2 -3.6 1.4 166 2.2 148 844.09 9.4 0.00
2019-11-15 06:50 -2.0 88.1 -3.8 1.7 157 3.2 180 844.10 3.4 0.00
2019-11-15 06:45 -1.9 84.5 -4.2 1.0 348 2.1 349 844.28 2.3 0.00
2019-11-15 06:40 -2.0 86.0 -4.0 1.0 350 2.6 16 844.21 3.3 0.00
2019-11-15 06:35 -1.5 81.4 -4.2 0.7 245 1.4 241 844.24 1.2 0.00
2019-11-15 06:30 -1.5 84.2 -3.8 1.0 287 1.9 286 844.35 0.2 0.00
2019-11-15 06:25 -1.4 81.8 -4.1 0.6 239 1.7 225 844.31 0.2 0.00
2019-11-15 06:20 -1.5 83.0 -4.0 1.5 326 2.2 330 844.37 0.0 0.00
2019-11-15 06:15 -1.2 83.3 -3.7 1.4 239 2.3 340 844.30 0.0 0.00
2019-11-15 06:10 -1.0 84.9 -3.3 1.1 337 2.1 337 844.33 0.0 0.00
2019-11-15 06:05 -0.9 83.9 -3.2 1.4 345 2.3 1 844.42 0.0 0.00
2019-11-15 06:00 -1.4 88.0 -3.2 0.3 30 0.8 30 844.39 0.0 0.00